Aviation Digital Data Service (ADDS)

Output produced by METARs form (1844 UTC 26 September 2021)
found at http://www.aviationweather.gov/metar/data/
 
METAR text: KBAB 261758Z AUTO 16007KT 10SM CLR 22/11 A2997 RMK AO2 SLP151 T02170114 10217 20125 50005 $
Conditions at: KBAB (BEALE AFB/MARYSV, CA, US) observed 1758 UTC 26 September 2021
Temperature: 21.7°C (71°F)
Dewpoint: 11.4°C (53°F) [RH = 52%]
Pressure (altimeter): 29.97 inches Hg (1015.0 mb)
[Sea-level pressure: 1015.1 mb]
Winds: from the SSE (160 degrees) at 8 MPH (7 knots; 3.6 m/s)
Visibility: 10 or more miles (16+ km)
Ceiling: at least 12,000 feet AGL
Clouds: sky clear below 12,000 feet AGL
Weather:
SOME DATA ABOVE MAY BE INACCURATE!!!
"$" is an indication the sensor requires maintenance

METAR text: KBAB 261658Z AUTO 14005KT 10SM CLR 20/11 A2998 RMK AO2 SLP155 T01990109 $
Conditions at: KBAB (BEALE AFB/MARYSV, CA, US) observed 1658 UTC 26 September 2021
Temperature: 19.9°C (68°F)
Dewpoint: 10.9°C (52°F) [RH = 56%]
Pressure (altimeter): 29.98 inches Hg (1015.3 mb)
[Sea-level pressure: 1015.5 mb]
Winds: from the SE (140 degrees) at 6 MPH (5 knots; 2.6 m/s)
Visibility: 10 or more miles (16+ km)
Ceiling: at least 12,000 feet AGL
Clouds: sky clear below 12,000 feet AGL
Weather:
SOME DATA ABOVE MAY BE INACCURATE!!!
"$" is an indication the sensor requires maintenance

METAR text: KBAB 261558Z AUTO 12011KT 10SM CLR 17/11 A2997 RMK AO2 SLP151 T01670110 $
Conditions at: KBAB (BEALE AFB/MARYSV, CA, US) observed 1558 UTC 26 September 2021
Temperature: 16.7°C (62°F)
Dewpoint: 11.0°C (52°F) [RH = 69%]
Pressure (altimeter): 29.97 inches Hg (1015.0 mb)
[Sea-level pressure: 1015.1 mb]
Winds: from the ESE (120 degrees) at 13 MPH (11 knots; 5.7 m/s)
Visibility: 10 or more miles (16+ km)
Ceiling: at least 12,000 feet AGL
Clouds: sky clear below 12,000 feet AGL
Weather:
SOME DATA ABOVE MAY BE INACCURATE!!!
"$" is an indication the sensor requires maintenance

METAR text: KBAB 261458Z AUTO 14007KT 10SM CLR 14/11 A2996 RMK AO2 SLP148 T01400108 52011 $
Conditions at: KBAB (BEALE AFB/MARYSV, CA, US) observed 1458 UTC 26 September 2021
Temperature: 14.0°C (57°F)
Dewpoint: 10.8°C (51°F) [RH = 81%]
Pressure (altimeter): 29.96 inches Hg (1014.6 mb)
[Sea-level pressure: 1014.8 mb]
Winds: from the SE (140 degrees) at 8 MPH (7 knots; 3.6 m/s)
Visibility: 10 or more miles (16+ km)
Ceiling: at least 12,000 feet AGL
Clouds: sky clear below 12,000 feet AGL
Weather:
SOME DATA ABOVE MAY BE INACCURATE!!!
"$" is an indication the sensor requires maintenance

METAR text: KBAB 261358Z AUTO 14008KT 10SM CLR 13/10 A2994 RMK AO2 SLP141 T01320100 $
Conditions at: KBAB (BEALE AFB/MARYSV, CA, US) observed 1358 UTC 26 September 2021
Temperature: 13.2°C (56°F)
Dewpoint: 10.0°C (50°F) [RH = 81%]
Pressure (altimeter): 29.94 inches Hg (1014.0 mb)
[Sea-level pressure: 1014.1 mb]
Winds: from the SE (140 degrees) at 9 MPH (8 knots; 4.1 m/s)
Visibility: 10 or more miles (16+ km)
Ceiling: at least 12,000 feet AGL
Clouds: sky clear below 12,000 feet AGL
Weather:
SOME DATA ABOVE MAY BE INACCURATE!!!
"$" is an indication the sensor requires maintenance

METAR text: KBAB 261258Z AUTO 12009KT 10SM CLR 14/10 A2994 RMK AO2 SLP141 T01410101 $
Conditions at: KBAB (BEALE AFB/MARYSV, CA, US) observed 1258 UTC 26 September 2021
Temperature: 14.1°C (57°F)
Dewpoint: 10.1°C (50°F) [RH = 77%]
Pressure (altimeter): 29.94 inches Hg (1014.0 mb)
[Sea-level pressure: 1014.1 mb]
Winds: from the ESE (120 degrees) at 10 MPH (9 knots; 4.6 m/s)
Visibility: 10 or more miles (16+ km)
Ceiling: at least 12,000 feet AGL
Clouds: sky clear below 12,000 feet AGL
Weather:
SOME DATA ABOVE MAY BE INACCURATE!!!
"$" is an indication the sensor requires maintenance

METAR text: KBAB 261158Z AUTO 14011KT 10SM CLR 15/10 A2993 RMK AO2 SLP138 T01510101 10196 20151 53004 $
Conditions at: KBAB (BEALE AFB/MARYSV, CA, US) observed 1158 UTC 26 September 2021
Temperature: 15.1°C (59°F)
Dewpoint: 10.1°C (50°F) [RH = 72%]
Pressure (altimeter): 29.93 inches Hg (1013.6 mb)
[Sea-level pressure: 1013.8 mb]
Winds: from the SE (140 degrees) at 13 MPH (11 knots; 5.7 m/s)
Visibility: 10 or more miles (16+ km)
Ceiling: at least 12,000 feet AGL
Clouds: sky clear below 12,000 feet AGL
Weather:
SOME DATA ABOVE MAY BE INACCURATE!!!
"$" is an indication the sensor requires maintenance

METAR text: KBAB 261058Z AUTO 13011KT 10SM CLR 16/10 A2992 RMK AO2 SLP134 T01620096 $
Conditions at: KBAB (BEALE AFB/MARYSV, CA, US) observed 1058 UTC 26 September 2021
Temperature: 16.2°C (61°F)
Dewpoint: 9.6°C (49°F) [RH = 65%]
Pressure (altimeter): 29.92 inches Hg (1013.3 mb)
[Sea-level pressure: 1013.4 mb]
Winds: from the SE (130 degrees) at 13 MPH (11 knots; 5.7 m/s)
Visibility: 10 or more miles (16+ km)
Ceiling: at least 12,000 feet AGL
Clouds: sky clear below 12,000 feet AGL
Weather:
SOME DATA ABOVE MAY BE INACCURATE!!!
"$" is an indication the sensor requires maintenance

METAR text: KBAB 260958Z AUTO 13013KT 10SM CLR 17/10 A2991 RMK AO2 SLP131 T01690096 $
Conditions at: KBAB (BEALE AFB/MARYSV, CA, US) observed 0958 UTC 26 September 2021
Temperature: 16.9°C (62°F)
Dewpoint: 9.6°C (49°F) [RH = 62%]
Pressure (altimeter): 29.91 inches Hg (1013.0 mb)
[Sea-level pressure: 1013.1 mb]
Winds: from the SE (130 degrees) at 15 MPH (13 knots; 6.7 m/s)
Visibility: 10 or more miles (16+ km)
Ceiling: at least 12,000 feet AGL
Clouds: sky clear below 12,000 feet AGL
Weather:
SOME DATA ABOVE MAY BE INACCURATE!!!
"$" is an indication the sensor requires maintenance

METAR text: KBAB 260858Z AUTO 13013KT 10SM CLR 18/09 A2992 RMK AO2 SLP134 T01830094 52012 $
Conditions at: KBAB (BEALE AFB/MARYSV, CA, US) observed 0858 UTC 26 September 2021
Temperature: 18.3°C (65°F)
Dewpoint: 9.4°C (49°F) [RH = 56%]
Pressure (altimeter): 29.92 inches Hg (1013.3 mb)
[Sea-level pressure: 1013.4 mb]
Winds: from the SE (130 degrees) at 15 MPH (13 knots; 6.7 m/s)
Visibility: 10 or more miles (16+ km)
Ceiling: at least 12,000 feet AGL
Clouds: sky clear below 12,000 feet AGL
Weather:
SOME DATA ABOVE MAY BE INACCURATE!!!
"$" is an indication the sensor requires maintenance

METAR text: KBAB 260758Z AUTO 13015KT 10SM CLR 19/10 A2989 RMK AO2 SLP124 T01940096 403270146 $
Conditions at: KBAB (BEALE AFB/MARYSV, CA, US) observed 0758 UTC 26 September 2021
Temperature: 19.4°C (67°F)
Dewpoint: 9.6°C (49°F) [RH = 53%]
Pressure (altimeter): 29.89 inches Hg (1012.3 mb)
[Sea-level pressure: 1012.4 mb]
Winds: from the SE (130 degrees) at 17 MPH (15 knots; 7.7 m/s)
Visibility: 10 or more miles (16+ km)
Ceiling: at least 12,000 feet AGL
Clouds: sky clear below 12,000 feet AGL
Weather:
SOME DATA ABOVE MAY BE INACCURATE!!!
"$" is an indication the sensor requires maintenance

METAR text: KBAB 260658Z AUTO 14011KT 10SM CLR 20/11 A2989 RMK AO2 SLP124 T01950113 $
Conditions at: KBAB (BEALE AFB/MARYSV, CA, US) observed 0658 UTC 26 September 2021
Temperature: 19.5°C (67°F)
Dewpoint: 11.3°C (52°F) [RH = 59%]
Pressure (altimeter): 29.89 inches Hg (1012.3 mb)
[Sea-level pressure: 1012.4 mb]
Winds: from the SE (140 degrees) at 13 MPH (11 knots; 5.7 m/s)
Visibility: 10 or more miles (16+ km)
Ceiling: at least 12,000 feet AGL
Clouds: sky clear below 12,000 feet AGL
Weather:
SOME DATA ABOVE MAY BE INACCURATE!!!
"$" is an indication the sensor requires maintenance

METAR text: KBAB 260558Z AUTO 13006KT 10SM CLR 18/10 A2988 RMK AO2 SLP121 T01800099 10321 20180 52012 $
Conditions at: KBAB (BEALE AFB/MARYSV, CA, US) observed 0558 UTC 26 September 2021
Temperature: 18.0°C (64°F)
Dewpoint: 9.9°C (50°F) [RH = 59%]
Pressure (altimeter): 29.88 inches Hg (1011.9 mb)
[Sea-level pressure: 1012.1 mb]
Winds: from the SE (130 degrees) at 7 MPH (6 knots; 3.1 m/s)
Visibility: 10 or more miles (16+ km)
Ceiling: at least 12,000 feet AGL
Clouds: sky clear below 12,000 feet AGL
Weather:
SOME DATA ABOVE MAY BE INACCURATE!!!
"$" is an indication the sensor requires maintenance

METAR text: KBAB 260458Z AUTO 14005KT 10SM CLR 19/10 A2987 RMK AO2 SLP117 T01930103 $
Conditions at: KBAB (BEALE AFB/MARYSV, CA, US) observed 0458 UTC 26 September 2021
Temperature: 19.3°C (67°F)
Dewpoint: 10.3°C (51°F) [RH = 56%]
Pressure (altimeter): 29.87 inches Hg (1011.6 mb)
[Sea-level pressure: 1011.7 mb]
Winds: from the SE (140 degrees) at 6 MPH (5 knots; 2.6 m/s)
Visibility: 10 or more miles (16+ km)
Ceiling: at least 12,000 feet AGL
Clouds: sky clear below 12,000 feet AGL
Weather:
SOME DATA ABOVE MAY BE INACCURATE!!!
"$" is an indication the sensor requires maintenance

METAR text: KBAB 260358Z AUTO 12005KT 10SM CLR 21/11 A2986 RMK AO2 SLP114 T02110114 $
Conditions at: KBAB (BEALE AFB/MARYSV, CA, US) observed 0358 UTC 26 September 2021
Temperature: 21.1°C (70°F)
Dewpoint: 11.4°C (53°F) [RH = 54%]
Pressure (altimeter): 29.86 inches Hg (1011.3 mb)
[Sea-level pressure: 1011.4 mb]
Winds: from the ESE (120 degrees) at 6 MPH (5 knots; 2.6 m/s)
Visibility: 10 or more miles (16+ km)
Ceiling: at least 12,000 feet AGL
Clouds: sky clear below 12,000 feet AGL
Weather:
SOME DATA ABOVE MAY BE INACCURATE!!!
"$" is an indication the sensor requires maintenance

METAR text: KBAB 260258Z AUTO 14007KT 10SM CLR 25/11 A2984 RMK AO2 SLP107 T02510105 53000 $
Conditions at: KBAB (BEALE AFB/MARYSV, CA, US) observed 0258 UTC 26 September 2021
Temperature: 25.1°C (77°F)
Dewpoint: 10.5°C (51°F) [RH = 40%]
Pressure (altimeter): 29.84 inches Hg (1010.6 mb)
[Sea-level pressure: 1010.7 mb]
Winds: from the SE (140 degrees) at 8 MPH (7 knots; 3.6 m/s)
Visibility: 10 or more miles (16+ km)
Ceiling: at least 12,000 feet AGL
Clouds: sky clear below 12,000 feet AGL
Weather:
SOME DATA ABOVE MAY BE INACCURATE!!!
"$" is an indication the sensor requires maintenance

METAR text: KBAB 260158Z AUTO 00000KT 10SM CLR 28/11 A2983 RMK AO2 SLP104 T02780113 $
Conditions at: KBAB (BEALE AFB/MARYSV, CA, US) observed 0158 UTC 26 September 2021
Temperature: 27.8°C (82°F)
Dewpoint: 11.3°C (52°F) [RH = 36%]
Pressure (altimeter): 29.83 inches Hg (1010.2 mb)
[Sea-level pressure: 1010.4 mb]
Winds: calm
Visibility: 10 or more miles (16+ km)
Ceiling: at least 12,000 feet AGL
Clouds: sky clear below 12,000 feet AGL
Weather:
SOME DATA ABOVE MAY BE INACCURATE!!!
"$" is an indication the sensor requires maintenance

METAR text: KBAB 260058Z AUTO 15005KT 10SM CLR 31/10 A2984 RMK AO2 SLP107 T03090097 $
Conditions at: KBAB (BEALE AFB/MARYSV, CA, US) observed 0058 UTC 26 September 2021
Temperature: 30.9°C (88°F)
Dewpoint: 9.7°C (49°F) [RH = 27%]
Pressure (altimeter): 29.84 inches Hg (1010.6 mb)
[Sea-level pressure: 1010.7 mb]
Winds: from the SSE (150 degrees) at 6 MPH (5 knots; 2.6 m/s)
Visibility: 10 or more miles (16+ km)
Ceiling: at least 12,000 feet AGL
Clouds: sky clear below 12,000 feet AGL
Weather:
SOME DATA ABOVE MAY BE INACCURATE!!!
"$" is an indication the sensor requires maintenance

METAR text: KBAB 252358Z AUTO 19007KT 10SM CLR 32/10 A2984 RMK AO2 SLP107 T03220097 10327 20248 57017 $
Conditions at: KBAB (BEALE AFB/MARYSV, CA, US) observed 2358 UTC 25 September 2021
Temperature: 32.2°C (90°F)
Dewpoint: 9.7°C (49°F) [RH = 25%]
Pressure (altimeter): 29.84 inches Hg (1010.6 mb)
[Sea-level pressure: 1010.7 mb]
Winds: from the S (190 degrees) at 8 MPH (7 knots; 3.6 m/s)
Visibility: 10 or more miles (16+ km)
Ceiling: at least 12,000 feet AGL
Clouds: sky clear below 12,000 feet AGL
Weather:
SOME DATA ABOVE MAY BE INACCURATE!!!
"$" is an indication the sensor requires maintenance

METAR text: KBAB 252258Z AUTO 17005KT 10SM CLR 32/08 A2985 RMK AO2 SLP110 T03240079 $
Conditions at: KBAB (BEALE AFB/MARYSV, CA, US) observed 2258 UTC 25 September 2021
Temperature: 32.4°C (90°F)
Dewpoint: 7.9°C (46°F) [RH = 22%]
Pressure (altimeter): 29.85 inches Hg (1010.9 mb)
[Sea-level pressure: 1011.0 mb]
Winds: from the S (170 degrees) at 6 MPH (5 knots; 2.6 m/s)
Visibility: 10 or more miles (16+ km)
Ceiling: at least 12,000 feet AGL
Clouds: sky clear below 12,000 feet AGL
Weather:
SOME DATA ABOVE MAY BE INACCURATE!!!
"$" is an indication the sensor requires maintenance

METAR text: KBAB 252158Z AUTO 15003KT 10SM CLR 32/09 A2987 RMK AO2 SLP117 T03150085 $
Conditions at: KBAB (BEALE AFB/MARYSV, CA, US) observed 2158 UTC 25 September 2021
Temperature: 31.5°C (89°F)
Dewpoint: 8.5°C (47°F) [RH = 24%]
Pressure (altimeter): 29.87 inches Hg (1011.6 mb)
[Sea-level pressure: 1011.7 mb]
Winds: from the SSE (150 degrees) at 3 MPH (3 knots; 1.5 m/s)
Visibility: 10 or more miles (16+ km)
Ceiling: at least 12,000 feet AGL
Clouds: sky clear below 12,000 feet AGL
Weather:
SOME DATA ABOVE MAY BE INACCURATE!!!
"$" is an indication the sensor requires maintenance

METAR text: KBAB 252058Z AUTO 15006KT 10SM FEW220 31/10 A2990 RMK AO2 SLP127 T03060100 57016 $
Conditions at: KBAB (BEALE AFB/MARYSV, CA, US) observed 2058 UTC 25 September 2021
Temperature: 30.6°C (87°F)
Dewpoint: 10.0°C (50°F) [RH = 28%]
Pressure (altimeter): 29.90 inches Hg (1012.6 mb)
[Sea-level pressure: 1012.7 mb]
Winds: from the SSE (150 degrees) at 7 MPH (6 knots; 3.1 m/s)
Visibility: 10 or more miles (16+ km)
Ceiling: at least 12,000 feet AGL
Clouds: few clouds at 22000 feet AGL
Weather:
SOME DATA ABOVE MAY BE INACCURATE!!!
"$" is an indication the sensor requires maintenance

METAR text: KBAB 251958Z AUTO 17007KT 10SM CLR 29/12 A2992 RMK AO2 SLP134 T02860116 $
Conditions at: KBAB (BEALE AFB/MARYSV, CA, US) observed 1958 UTC 25 September 2021
Temperature: 28.6°C (83°F)
Dewpoint: 11.6°C (53°F) [RH = 35%]
Pressure (altimeter): 29.92 inches Hg (1013.3 mb)
[Sea-level pressure: 1013.4 mb]
Winds: from the S (170 degrees) at 8 MPH (7 knots; 3.6 m/s)
Visibility: 10 or more miles (16+ km)
Ceiling: at least 12,000 feet AGL
Clouds: sky clear below 12,000 feet AGL
Weather:
SOME DATA ABOVE MAY BE INACCURATE!!!
"$" is an indication the sensor requires maintenance

METAR text: KBAB 251858Z AUTO 19005KT 10SM CLR 27/11 A2993 RMK AO2 SLP138 T02720112 $
Conditions at: KBAB (BEALE AFB/MARYSV, CA, US) observed 1858 UTC 25 September 2021
Temperature: 27.2°C (81°F)
Dewpoint: 11.2°C (52°F) [RH = 37%]
Pressure (altimeter): 29.93 inches Hg (1013.6 mb)
[Sea-level pressure: 1013.8 mb]
Winds: from the S (190 degrees) at 6 MPH (5 knots; 2.6 m/s)
Visibility: 10 or more miles (16+ km)
Ceiling: at least 12,000 feet AGL
Clouds: sky clear below 12,000 feet AGL
Weather:
SOME DATA ABOVE MAY BE INACCURATE!!!
"$" is an indication the sensor requires maintenance

METAR text: KBAB 251758Z AUTO 00000KT 10SM CLR 25/11 A2994 RMK AO2 SLP141 T02470109 10247 20146 50005 $
Conditions at: KBAB (BEALE AFB/MARYSV, CA, US) observed 1758 UTC 25 September 2021
Temperature: 24.7°C (76°F)
Dewpoint: 10.9°C (52°F) [RH = 42%]
Pressure (altimeter): 29.94 inches Hg (1014.0 mb)
[Sea-level pressure: 1014.1 mb]
Winds: calm
Visibility: 10 or more miles (16+ km)
Ceiling: at least 12,000 feet AGL
Clouds: sky clear below 12,000 feet AGL
Weather:
SOME DATA ABOVE MAY BE INACCURATE!!!
"$" is an indication the sensor requires maintenance

METAR text: KBAB 251658Z AUTO 24003KT 10SM CLR 22/11 A2995 RMK AO2 SLP144 T02160107 $
Conditions at: KBAB (BEALE AFB/MARYSV, CA, US) observed 1658 UTC 25 September 2021
Temperature: 21.6°C (71°F)
Dewpoint: 10.7°C (51°F) [RH = 50%]
Pressure (altimeter): 29.95 inches Hg (1014.3 mb)
[Sea-level pressure: 1014.4 mb]
Winds: from the WSW (240 degrees) at 3 MPH (3 knots; 1.5 m/s)
Visibility: 10 or more miles (16+ km)
Ceiling: at least 12,000 feet AGL
Clouds: sky clear below 12,000 feet AGL
Weather:
SOME DATA ABOVE MAY BE INACCURATE!!!
"$" is an indication the sensor requires maintenance

METAR text: KBAB 251558Z AUTO 22004KT 10SM CLR 20/10 A2994 RMK AO2 SLP141 T01960095 $
Conditions at: KBAB (BEALE AFB/MARYSV, CA, US) observed 1558 UTC 25 September 2021
Temperature: 19.6°C (67°F)
Dewpoint: 9.5°C (49°F) [RH = 52%]
Pressure (altimeter): 29.94 inches Hg (1014.0 mb)
[Sea-level pressure: 1014.1 mb]
Winds: from the SW (220 degrees) at 5 MPH (4 knots; 2.1 m/s)
Visibility: 10 or more miles (16+ km)
Ceiling: at least 12,000 feet AGL
Clouds: sky clear below 12,000 feet AGL
Weather:
SOME DATA ABOVE MAY BE INACCURATE!!!
"$" is an indication the sensor requires maintenance

METAR text: KBAB 251458Z AUTO 20003KT 10SM CLR 17/07 A2993 RMK AO2 SLP138 T01650066 52012 $
Conditions at: KBAB (BEALE AFB/MARYSV, CA, US) observed 1458 UTC 25 September 2021
Temperature: 16.5°C (62°F)
Dewpoint: 6.6°C (44°F) [RH = 52%]
Pressure (altimeter): 29.93 inches Hg (1013.6 mb)
[Sea-level pressure: 1013.8 mb]
Winds: from the SSW (200 degrees) at 3 MPH (3 knots; 1.5 m/s)
Visibility: 10 or more miles (16+ km)
Ceiling: at least 12,000 feet AGL
Clouds: sky clear below 12,000 feet AGL
Weather:
SOME DATA ABOVE MAY BE INACCURATE!!!
"$" is an indication the sensor requires maintenance

METAR text: KBAB 251358Z AUTO 15005KT 10SM CLR 15/06 A2992 RMK AO2 SLP134 T01520062 $
Conditions at: KBAB (BEALE AFB/MARYSV, CA, US) observed 1358 UTC 25 September 2021
Temperature: 15.2°C (59°F)
Dewpoint: 6.2°C (43°F) [RH = 55%]
Pressure (altimeter): 29.92 inches Hg (1013.3 mb)
[Sea-level pressure: 1013.4 mb]
Winds: from the SSE (150 degrees) at 6 MPH (5 knots; 2.6 m/s)
Visibility: 10 or more miles (16+ km)
Ceiling: at least 12,000 feet AGL
Clouds: sky clear below 12,000 feet AGL
Weather:
SOME DATA ABOVE MAY BE INACCURATE!!!
"$" is an indication the sensor requires maintenance

METAR text: KBAB 251258Z AUTO 14007KT 10SM CLR 17/07 A2991 RMK AO2 SLP131 T01740069 $
Conditions at: KBAB (BEALE AFB/MARYSV, CA, US) observed 1258 UTC 25 September 2021
Temperature: 17.4°C (63°F)
Dewpoint: 6.9°C (44°F) [RH = 50%]
Pressure (altimeter): 29.91 inches Hg (1013.0 mb)
[Sea-level pressure: 1013.1 mb]
Winds: from the SE (140 degrees) at 8 MPH (7 knots; 3.6 m/s)
Visibility: 10 or more miles (16+ km)
Ceiling: at least 12,000 feet AGL
Clouds: sky clear below 12,000 feet AGL
Weather:
SOME DATA ABOVE MAY BE INACCURATE!!!
"$" is an indication the sensor requires maintenance

METAR text: KBAB 251158Z AUTO 12009KT 10SM CLR 20/07 A2989 RMK AO2 SLP124 T01960067 10229 20172 51004 $
Conditions at: KBAB (BEALE AFB/MARYSV, CA, US) observed 1158 UTC 25 September 2021
Temperature: 19.6°C (67°F)
Dewpoint: 6.7°C (44°F) [RH = 43%]
Pressure (altimeter): 29.89 inches Hg (1012.3 mb)
[Sea-level pressure: 1012.4 mb]
Winds: from the ESE (120 degrees) at 10 MPH (9 knots; 4.6 m/s)
Visibility: 10 or more miles (16+ km)
Ceiling: at least 12,000 feet AGL
Clouds: sky clear below 12,000 feet AGL
Weather:
SOME DATA ABOVE MAY BE INACCURATE!!!
"$" is an indication the sensor requires maintenance

METAR text: KBAB 251058Z AUTO 11010KT 10SM CLR 19/07 A2989 RMK AO2 SLP124 T01880072 $
Conditions at: KBAB (BEALE AFB/MARYSV, CA, US) observed 1058 UTC 25 September 2021
Temperature: 18.8°C (66°F)
Dewpoint: 7.2°C (45°F) [RH = 47%]
Pressure (altimeter): 29.89 inches Hg (1012.3 mb)
[Sea-level pressure: 1012.4 mb]
Winds: from the ESE (110 degrees) at 12 MPH (10 knots; 5.1 m/s)
Visibility: 10 or more miles (16+ km)
Ceiling: at least 12,000 feet AGL
Clouds: sky clear below 12,000 feet AGL
Weather:
SOME DATA ABOVE MAY BE INACCURATE!!!
"$" is an indication the sensor requires maintenance

METAR text: KBAB 250958Z AUTO 13007KT 10SM CLR 18/08 A2989 RMK AO2 SLP124 T01790076 $
Conditions at: KBAB (BEALE AFB/MARYSV, CA, US) observed 0958 UTC 25 September 2021
Temperature: 17.9°C (64°F)
Dewpoint: 7.6°C (46°F) [RH = 51%]
Pressure (altimeter): 29.89 inches Hg (1012.3 mb)
[Sea-level pressure: 1012.4 mb]
Winds: from the SE (130 degrees) at 8 MPH (7 knots; 3.6 m/s)
Visibility: 10 or more miles (16+ km)
Ceiling: at least 12,000 feet AGL
Clouds: sky clear below 12,000 feet AGL
Weather:
SOME DATA ABOVE MAY BE INACCURATE!!!
"$" is an indication the sensor requires maintenance

METAR text: KBAB 250858Z AUTO 14005KT 10SM CLR 18/07 A2988 RMK AO2 SLP120 T01780069 51009 $
Conditions at: KBAB (BEALE AFB/MARYSV, CA, US) observed 0858 UTC 25 September 2021
Temperature: 17.8°C (64°F)
Dewpoint: 6.9°C (44°F) [RH = 49%]
Pressure (altimeter): 29.88 inches Hg (1011.9 mb)
[Sea-level pressure: 1012.0 mb]
Winds: from the SE (140 degrees) at 6 MPH (5 knots; 2.6 m/s)
Visibility: 10 or more miles (16+ km)
Ceiling: at least 12,000 feet AGL
Clouds: sky clear below 12,000 feet AGL
Weather:
SOME DATA ABOVE MAY BE INACCURATE!!!
"$" is an indication the sensor requires maintenance

METAR text: KBAB 250758Z AUTO 12007KT 10SM CLR 20/06 A2987 RMK AO2 SLP117 T01950055 403470141 $
Conditions at: KBAB (BEALE AFB/MARYSV, CA, US) observed 0758 UTC 25 September 2021
Temperature: 19.5°C (67°F)
Dewpoint: 5.5°C (42°F) [RH = 40%]
Pressure (altimeter): 29.87 inches Hg (1011.6 mb)
[Sea-level pressure: 1011.7 mb]
Winds: from the ESE (120 degrees) at 8 MPH (7 knots; 3.6 m/s)
Visibility: 10 or more miles (16+ km)
Ceiling: at least 12,000 feet AGL
Clouds: sky clear below 12,000 feet AGL
Weather:
SOME DATA ABOVE MAY BE INACCURATE!!!
"$" is an indication the sensor requires maintenance

METAR text: KBAB 250658Z AUTO 12005KT 10SM CLR 21/06 A2987 RMK AO2 SLP117 T02130060 $
Conditions at: KBAB (BEALE AFB/MARYSV, CA, US) observed 0658 UTC 25 September 2021
Temperature: 21.3°C (70°F)
Dewpoint: 6.0°C (43°F) [RH = 37%]
Pressure (altimeter): 29.87 inches Hg (1011.6 mb)
[Sea-level pressure: 1011.7 mb]
Winds: from the ESE (120 degrees) at 6 MPH (5 knots; 2.6 m/s)
Visibility: 10 or more miles (16+ km)
Ceiling: at least 12,000 feet AGL
Clouds: sky clear below 12,000 feet AGL
Weather:
SOME DATA ABOVE MAY BE INACCURATE!!!
"$" is an indication the sensor requires maintenance